createdAt,value
2018-12-16T00:03:24.240Z,78.73
2018-12-16T00:08:31.150Z,81.00
2018-12-16T00:13:36.298Z,78.40
2018-12-16T00:18:40.668Z,82.97
2018-12-16T00:23:45.117Z,82.23
2018-12-16T00:28:50.920Z,81.07
2018-12-16T00:33:55.123Z,86.20
2018-12-16T00:39:03.922Z,86.43
2018-12-16T00:44:11.200Z,72.37
2018-12-16T00:54:40.620Z,80.90
2018-12-16T00:59:46.706Z,81.37
2018-12-16T01:04:54.136Z,78.07
2018-12-16T01:10:01.135Z,77.20
2018-12-16T01:15:14.356Z,78.50
2018-12-16T01:20:21.972Z,78.77
2018-12-16T01:25:28.801Z,80.00
2018-12-16T01:30:34.242Z,82.30
2018-12-16T01:35:38.394Z,79.60
2018-12-16T01:40:45.829Z,78.40
2018-12-16T01:45:52.640Z,91.83
2018-12-16T01:50:57.141Z,78.80
2018-12-16T01:56:01.584Z,91.67
2018-12-16T02:01:06.018Z,91.10
2018-12-16T02:06:10.330Z,83.40
2018-12-16T02:11:14.677Z,85.73
2018-12-16T02:16:21.014Z,83.20
2018-12-16T02:21:25.378Z,82.67
2018-12-16T02:26:30.203Z,79.33
2018-12-16T02:31:34.671Z,79.43
2018-12-16T02:36:40.057Z,78.60
2018-12-16T02:41:44.461Z,89.73
2018-12-16T02:46:48.960Z,79.23
2018-12-16T02:51:53.409Z,83.43
2018-12-16T02:56:58.517Z,82.50
2018-12-16T03:02:02.907Z,72.13
2018-12-16T03:07:09.473Z,75.40
2018-12-16T03:12:14.810Z,79.73
2018-12-16T03:17:20.346Z,83.23
2018-12-16T03:22:24.870Z,77.10
2018-12-16T03:27:29.146Z,79.03
2018-12-16T03:32:33.676Z,82.97
2018-12-16T03:37:38.191Z,77.93
2018-12-16T03:42:42.616Z,79.93
2018-12-16T03:47:47.025Z,83.73
2018-12-16T03:52:53.416Z,85.40
2018-12-16T03:57:58.893Z,79.00
2018-12-16T04:03:04.255Z,79.83
2018-12-16T04:08:08.487Z,80.83
2018-12-16T04:13:12.593Z,80.33
2018-12-16T04:18:17.983Z,78.87
2018-12-16T04:23:27.479Z,75.60
2018-12-16T04:28:28.514Z,72.23
2018-12-16T04:33:32.908Z,74.77
2018-12-16T04:38:37.239Z,79.37
2018-12-16T04:43:41.368Z,79.40
2018-12-16T04:48:45.664Z,70.10
2018-12-16T04:53:49.796Z,74.77
2018-12-16T04:58:53.936Z,73.70
2018-12-16T05:03:58.087Z,75.63
2018-12-16T05:09:02.177Z,71.80
2018-12-16T05:14:08.434Z,70.27
2018-12-16T05:19:15.419Z,71.33
2018-12-16T05:24:19.586Z,68.67
2018-12-16T05:29:24.224Z,75.70
2018-12-16T05:34:28.465Z,67.47
2018-12-16T05:39:32.678Z,74.93
2018-12-16T05:44:36.879Z,71.37
2018-12-16T05:49:41.029Z,69.80
2018-12-16T05:54:45.604Z,73.70
2018-12-16T05:59:49.829Z,67.00
2018-12-16T06:04:55.141Z,66.13
2018-12-16T06:09:59.425Z,68.63
2018-12-16T06:15:04.171Z,66.77
2018-12-16T06:20:17.785Z,64.60
2018-12-16T06:25:22.057Z,67.50
2018-12-16T06:30:28.737Z,70.47
2018-12-16T06:35:34.273Z,67.17
2018-12-16T06:40:40.271Z,62.60
2018-12-16T06:45:45.080Z,65.33
2018-12-16T06:50:49.594Z,57.30
2018-12-16T06:55:54.085Z,58.00
2018-12-16T07:00:58.914Z,65.43
2018-12-16T07:06:03.307Z,61.57
2018-12-16T07:11:08.653Z,55.83
2018-12-16T07:16:13.023Z,59.70
2018-12-16T07:21:18.438Z,59.77
2018-12-16T07:26:23.042Z,59.10
2018-12-16T07:31:27.724Z,60.27
2018-12-16T07:36:32.388Z,62.17
2018-12-16T07:41:37.171Z,59.93
2018-12-16T07:46:41.524Z,60.67
2018-12-16T07:51:45.989Z,59.47
2018-12-16T07:56:50.510Z,59.17
2018-12-16T08:01:55.705Z,63.73
2018-12-16T08:07:00.424Z,57.87
2018-12-16T08:12:05.051Z,58.03
2018-12-16T08:17:10.506Z,57.20
2018-12-16T08:22:15.906Z,61.23
2018-12-16T08:27:20.224Z,54.70
2018-12-16T08:32:24.839Z,53.60
2018-12-16T08:37:29.104Z,57.63
2018-12-16T08:42:33.475Z,57.67
2018-12-16T08:47:38.133Z,55.60
2018-12-16T08:52:42.302Z,54.30
2018-12-16T08:57:46.651Z,55.87
2018-12-16T09:02:51.358Z,58.20
2018-12-16T09:07:55.788Z,55.77
2018-12-16T09:13:00.619Z,57.00
2018-12-16T09:18:05.184Z,58.97
2018-12-16T09:23:09.507Z,51.07
2018-12-16T09:28:13.962Z,55.03
2018-12-16T09:33:18.485Z,56.97
2018-12-16T09:38:23.069Z,55.47
2018-12-16T09:43:27.336Z,51.13
2018-12-16T09:48:31.786Z,54.13
2018-12-16T09:53:37.165Z,52.83
2018-12-16T09:58:41.407Z,52.70
2018-12-16T10:03:45.821Z,53.53
2018-12-16T10:08:50.214Z,48.20
2018-12-16T10:13:54.555Z,43.20
2018-12-16T10:18:58.974Z,48.10
2018-12-16T10:24:03.385Z,50.73
2018-12-16T10:29:08.127Z,47.30
2018-12-16T10:34:12.394Z,48.67
2018-12-16T10:39:21.909Z,52.77
2018-12-16T10:44:26.602Z,49.83
2018-12-16T10:49:31.029Z,46.73
2018-12-16T10:54:36.213Z,47.80
2018-12-16T10:59:42.893Z,47.93
2018-12-16T11:04:47.533Z,47.67
2018-12-16T11:15:12.497Z,47.03
2018-12-16T11:20:22.392Z,47.63
2018-12-16T11:25:27.804Z,46.10
2018-12-16T11:30:32.202Z,51.33
2018-12-16T11:35:37.077Z,54.07
2018-12-16T11:40:42.106Z,52.00
2018-12-16T11:45:46.537Z,52.13
2018-12-16T11:50:51.657Z,50.87
2018-12-16T11:55:56.123Z,49.97
2018-12-16T12:01:00.981Z,52.57
2018-12-16T12:06:08.114Z,45.13
2018-12-16T12:11:12.507Z,46.40
2018-12-16T12:16:16.919Z,53.13
2018-12-16T12:21:21.451Z,48.30
2018-12-16T12:26:28.940Z,47.77
2018-12-16T12:31:33.424Z,44.73
2018-12-16T12:36:38.117Z,46.33
2018-12-16T12:41:42.646Z,40.77
2018-12-16T12:46:47.284Z,44.97
2018-12-16T12:51:52.918Z,44.77
2018-12-16T12:56:58.474Z,45.50
2018-12-16T13:02:03.649Z,40.93
2018-12-16T13:07:08.302Z,48.27
2018-12-16T13:12:13.150Z,48.70
2018-12-16T13:17:17.481Z,50.13
2018-12-16T13:22:21.724Z,47.70
2018-12-16T13:27:26.027Z,49.07
2018-12-16T13:32:30.468Z,51.93
2018-12-16T13:37:34.816Z,54.60
2018-12-16T13:42:40.052Z,54.27
2018-12-16T13:47:45.126Z,56.83
2018-12-16T13:52:49.790Z,51.73
2018-12-16T13:57:58.319Z,51.00
2018-12-16T14:03:02.630Z,53.37
2018-12-16T14:08:15.888Z,50.93
2018-12-16T14:13:20.300Z,53.33
2018-12-16T14:18:24.594Z,45.77
2018-12-16T14:23:30.583Z,46.20
2018-12-16T14:28:35.140Z,47.47
2018-12-16T14:33:39.384Z,49.70
2018-12-16T14:38:43.968Z,49.70
2018-12-16T14:43:48.174Z,49.27
2018-12-16T14:48:52.348Z,56.00
2018-12-16T14:53:56.593Z,54.37
2018-12-16T14:59:00.820Z,52.10
2018-12-16T15:04:05.127Z,52.43
2018-12-16T15:09:18.995Z,53.60
2018-12-16T15:14:23.289Z,54.17
2018-12-16T15:19:27.511Z,53.50
2018-12-16T15:24:31.644Z,56.33
2018-12-16T15:29:44.539Z,55.77
2018-12-16T15:34:48.858Z,56.97
2018-12-16T15:39:52.976Z,57.63
2018-12-16T15:44:57.561Z,58.97
2018-12-16T15:50:02.719Z,55.67
2018-12-16T15:55:09.845Z,59.67
2018-12-16T16:00:16.353Z,49.57
2018-12-16T16:05:20.627Z,51.97
2018-12-16T16:10:25.101Z,53.40
2018-12-16T16:15:29.427Z,51.73
2018-12-16T16:20:33.714Z,55.40
2018-12-16T16:25:38.184Z,53.73
2018-12-16T16:30:42.419Z,56.13
2018-12-16T16:35:46.769Z,51.87
2018-12-16T16:40:51.881Z,54.73
2018-12-16T16:45:56.191Z,55.17
2018-12-16T16:51:00.409Z,60.30
2018-12-16T16:56:04.909Z,61.77
2018-12-16T17:01:09.238Z,55.37
2018-12-16T17:06:14.535Z,55.70
2018-12-16T17:11:19.604Z,57.37
2018-12-16T17:16:24.308Z,58.47
2018-12-16T17:21:29.583Z,58.77
2018-12-16T17:26:34.344Z,54.90
2018-12-16T17:31:39.338Z,55.83
2018-12-16T17:36:43.763Z,58.97
2018-12-16T17:41:48.045Z,57.73
2018-12-16T17:46:52.577Z,57.90
2018-12-16T17:51:57.320Z,63.60
2018-12-16T17:57:01.779Z,64.30
2018-12-16T18:02:07.102Z,61.27
2018-12-16T18:07:12.664Z,65.90
2018-12-16T18:12:16.938Z,60.13
2018-12-16T18:17:21.445Z,64.40
2018-12-16T18:22:25.817Z,63.03
2018-12-16T18:27:30.558Z,62.13
2018-12-16T18:32:35.357Z,63.17
2018-12-16T18:37:39.958Z,66.30
2018-12-16T18:42:49.703Z,61.80
2018-12-16T18:47:54.122Z,65.00
2018-12-16T18:52:58.639Z,68.47
2018-12-16T18:58:03.453Z,64.23
2018-12-16T19:03:11.384Z,62.53
2018-12-16T19:08:16.983Z,62.77
2018-12-16T19:13:22.188Z,61.20
2018-12-16T19:18:27.779Z,56.03
2018-12-16T19:23:32.234Z,59.27
2018-12-16T19:28:37.031Z,56.57
2018-12-16T19:33:41.527Z,58.37
2018-12-16T19:38:45.649Z,55.80
2018-12-16T19:43:49.881Z,55.83
2018-12-16T19:48:54.276Z,56.10
2018-12-16T19:53:58.737Z,54.90
2018-12-16T19:59:04.792Z,54.97
2018-12-16T20:04:15.182Z,63.20
2018-12-16T20:09:21.305Z,64.83
2018-12-16T20:14:25.657Z,68.80
2018-12-16T20:19:29.959Z,60.80
2018-12-16T20:24:34.393Z,61.57
2018-12-16T20:29:39.150Z,63.53
2018-12-16T20:34:43.305Z,56.23
2018-12-16T20:39:47.966Z,63.90
2018-12-16T20:44:52.583Z,66.53
2018-12-16T20:50:02.223Z,67.57
2018-12-16T20:55:07.136Z,61.27
2018-12-16T21:00:12.865Z,59.93
2018-12-16T21:05:17.259Z,60.93
2018-12-16T21:10:21.616Z,64.33
2018-12-16T21:15:31.292Z,68.37
2018-12-16T21:20:35.504Z,68.97
2018-12-16T21:25:39.937Z,69.97
2018-12-16T21:30:44.335Z,63.33
2018-12-16T21:35:50.644Z,61.77
2018-12-16T21:40:57.637Z,63.20
2018-12-16T21:46:02.274Z,62.90
2018-12-16T21:51:07.706Z,65.20
2018-12-16T21:56:12.105Z,66.13
2018-12-16T22:01:16.452Z,66.83
2018-12-16T22:06:23.552Z,64.63
2018-12-16T22:11:27.826Z,64.00
2018-12-16T22:16:33.975Z,76.27
2018-12-16T22:21:39.424Z,74.47
2018-12-16T22:26:44.027Z,70.20
2018-12-16T22:31:49.032Z,71.67
2018-12-16T22:36:53.364Z,69.37
2018-12-16T22:41:59.526Z,72.93
2018-12-16T22:47:04.896Z,63.20
2018-12-16T22:52:09.217Z,69.70
2018-12-16T22:57:14.294Z,71.77
2018-12-16T23:02:19.329Z,74.27
2018-12-16T23:07:23.954Z,69.73
2018-12-16T23:12:30.668Z,65.20
2018-12-16T23:17:35.552Z,65.63
2018-12-16T23:27:59.419Z,65.07
2018-12-16T23:38:20.470Z,60.50
2018-12-16T23:43:25.820Z,63.23
2018-12-16T23:48:30.349Z,58.07
2018-12-16T23:53:34.641Z,64.07
2018-12-16T23:58:48.215Z,55.27
